sensor_id;sensor_type;location;lat;lon;timestamp;P1;durP1;ratioP1;P2;durP2;ratioP2
44026;SDS011;29696;55.698;37.460;2022-10-22T00:02:14;6.00;;;5.00;;
44026;SDS011;29696;55.698;37.460;2022-10-22T00:04:45;6.30;;;4.77;;
44026;SDS011;29696;55.698;37.460;2022-10-22T00:07:12;6.70;;;5.27;;
44026;SDS011;29696;55.698;37.460;2022-10-22T00:09:39;6.93;;;5.03;;
44026;SDS011;29696;55.698;37.460;2022-10-22T00:12:06;12.70;;;5.13;;
44026;SDS011;29696;55.698;37.460;2022-10-22T00:14:32;7.13;;;6.20;;
44026;SDS011;29696;55.698;37.460;2022-10-22T00:16:58;7.07;;;4.70;;
44026;SDS011;29696;55.698;37.460;2022-10-22T00:19:28;9.27;;;4.70;;
44026;SDS011;29696;55.698;37.460;2022-10-22T00:21:54;8.03;;;6.43;;
44026;SDS011;29696;55.698;37.460;2022-10-22T00:24:20;5.03;;;4.53;;
44026;SDS011;29696;55.698;37.460;2022-10-22T00:26:47;7.67;;;5.37;;
44026;SDS011;29696;55.698;37.460;2022-10-22T00:29:13;4.97;;;4.10;;
44026;SDS011;29696;55.698;37.460;2022-10-22T00:31:39;6.77;;;5.20;;
44026;SDS011;29696;55.698;37.460;2022-10-22T00:34:05;7.37;;;4.80;;
44026;SDS011;29696;55.698;37.460;2022-10-22T00:36:32;9.87;;;6.50;;
44026;SDS011;29696;55.698;37.460;2022-10-22T00:38:58;10.30;;;5.00;;
44026;SDS011;29696;55.698;37.460;2022-10-22T00:41:24;11.13;;;5.43;;
44026;SDS011;29696;55.698;37.460;2022-10-22T00:43:55;7.63;;;5.23;;
44026;SDS011;29696;55.698;37.460;2022-10-22T00:46:26;7.17;;;5.43;;
44026;SDS011;29696;55.698;37.460;2022-10-22T00:48:53;7.67;;;5.70;;
44026;SDS011;29696;55.698;37.460;2022-10-22T00:51:20;7.37;;;5.37;;
44026;SDS011;29696;55.698;37.460;2022-10-22T00:53:51;8.30;;;5.60;;
44026;SDS011;29696;55.698;37.460;2022-10-22T00:56:21;8.33;;;5.73;;
44026;SDS011;29696;55.698;37.460;2022-10-22T01:01:41;6.90;;;6.20;;
44026;SDS011;29696;55.698;37.460;2022-10-22T01:04:08;7.20;;;5.73;;
44026;SDS011;29696;55.698;37.460;2022-10-22T01:06:34;7.37;;;6.50;;
44026;SDS011;29696;55.698;37.460;2022-10-22T01:09:10;6.80;;;5.37;;
44026;SDS011;29696;55.698;37.460;2022-10-22T01:18:23;20.33;;;14.15;;
44026;SDS011;29696;55.698;37.460;2022-10-22T01:21:25;9.57;;;8.57;;
44026;SDS011;29696;55.698;37.460;2022-10-22T01:30:30;8.07;;;6.60;;
44026;SDS011;29696;55.698;37.460;2022-10-22T01:32:58;10.53;;;6.33;;
44026;SDS011;29696;55.698;37.460;2022-10-22T01:35:38;6.20;;;5.43;;
44026;SDS011;29696;55.698;37.460;2022-10-22T01:38:11;10.37;;;6.57;;
44026;SDS011;29696;55.698;37.460;2022-10-22T01:40:42;6.47;;;5.05;;
44026;SDS011;29696;55.698;37.460;2022-10-22T01:43:09;8.97;;;5.30;;
44026;SDS011;29696;55.698;37.460;2022-10-22T01:45:43;7.13;;;5.00;;
44026;SDS011;29696;55.698;37.460;2022-10-22T01:51:41;5.10;;;4.20;;
44026;SDS011;29696;55.698;37.460;2022-10-22T01:58:00;6.47;;;4.67;;
44026;SDS011;29696;55.698;37.460;2022-10-22T02:04:10;6.83;;;5.17;;
44026;SDS011;29696;55.698;37.460;2022-10-22T02:06:42;11.83;;;5.77;;
44026;SDS011;29696;55.698;37.460;2022-10-22T02:09:12;6.20;;;5.23;;
44026;SDS011;29696;55.698;37.460;2022-10-22T02:11:41;10.03;;;5.10;;
44026;SDS011;29696;55.698;37.460;2022-10-22T02:14:09;6.80;;;5.10;;
44026;SDS011;29696;55.698;37.460;2022-10-22T02:16:38;7.43;;;5.73;;
44026;SDS011;29696;55.698;37.460;2022-10-22T02:19:34;6.30;;;5.53;;
44026;SDS011;29696;55.698;37.460;2022-10-22T02:22:07;11.07;;;5.80;;
44026;SDS011;29696;55.698;37.460;2022-10-22T02:24:33;7.90;;;5.07;;
44026;SDS011;29696;55.698;37.460;2022-10-22T02:33:19;8.00;;;4.53;;
44026;SDS011;29696;55.698;37.460;2022-10-22T02:35:51;7.67;;;4.73;;
44026;SDS011;29696;55.698;37.460;2022-10-22T02:38:18;7.47;;;4.93;;
44026;SDS011;29696;55.698;37.460;2022-10-22T02:40:46;6.77;;;5.33;;
44026;SDS011;29696;55.698;37.460;2022-10-22T02:43:12;8.73;;;4.83;;
44026;SDS011;29696;55.698;37.460;2022-10-22T02:45:38;6.13;;;4.53;;
44026;SDS011;29696;55.698;37.460;2022-10-22T02:48:05;6.97;;;5.63;;
44026;SDS011;29696;55.698;37.460;2022-10-22T02:50:31;4.83;;;4.33;;
44026;SDS011;29696;55.698;37.460;2022-10-22T02:52:57;5.47;;;4.33;;
44026;SDS011;29696;55.698;37.460;2022-10-22T02:55:24;8.00;;;6.10;;
44026;SDS011;29696;55.698;37.460;2022-10-22T02:57:50;7.17;;;5.07;;
44026;SDS011;29696;55.698;37.460;2022-10-22T03:00:16;7.60;;;5.63;;
44026;SDS011;29696;55.698;37.460;2022-10-22T03:02:43;7.70;;;5.83;;
44026;SDS011;29696;55.698;37.460;2022-10-22T03:05:09;6.57;;;5.60;;
44026;SDS011;29696;55.698;37.460;2022-10-22T03:07:35;9.73;;;5.90;;
44026;SDS011;29696;55.698;37.460;2022-10-22T03:10:02;8.13;;;5.73;;
44026;SDS011;29696;55.698;37.460;2022-10-22T03:12:29;6.87;;;5.60;;
44026;SDS011;29696;55.698;37.460;2022-10-22T03:14:55;7.57;;;5.70;;
44026;SDS011;29696;55.698;37.460;2022-10-22T03:17:22;7.33;;;6.63;;
44026;SDS011;29696;55.698;37.460;2022-10-22T03:19:48;12.77;;;8.97;;
44026;SDS011;29696;55.698;37.460;2022-10-22T03:22:16;10.40;;;6.73;;
44026;SDS011;29696;55.698;37.460;2022-10-22T03:24:47;7.73;;;6.50;;
44026;SDS011;29696;55.698;37.460;2022-10-22T03:27:17;9.03;;;7.57;;
44026;SDS011;29696;55.698;37.460;2022-10-22T03:29:46;12.57;;;7.63;;
44026;SDS011;29696;55.698;37.460;2022-10-22T03:32:15;11.10;;;8.23;;
44026;SDS011;29696;55.698;37.460;2022-10-22T03:34:41;9.23;;;8.00;;
44026;SDS011;29696;55.698;37.460;2022-10-22T03:37:07;15.97;;;9.20;;
44026;SDS011;29696;55.698;37.460;2022-10-22T03:39:34;10.30;;;7.77;;
44026;SDS011;29696;55.698;37.460;2022-10-22T03:42:02;11.17;;;9.20;;
44026;SDS011;29696;55.698;37.460;2022-10-22T03:44:30;12.07;;;8.80;;
44026;SDS011;29696;55.698;37.460;2022-10-22T03:46:57;11.57;;;8.43;;
44026;SDS011;29696;55.698;37.460;2022-10-22T03:49:23;17.47;;;12.53;;
44026;SDS011;29696;55.698;37.460;2022-10-22T03:51:49;12.20;;;9.27;;
44026;SDS011;29696;55.698;37.460;2022-10-22T03:54:16;15.83;;;11.00;;
44026;SDS011;29696;55.698;37.460;2022-10-22T03:56:42;11.40;;;10.20;;
44026;SDS011;29696;55.698;37.460;2022-10-22T03:59:08;11.90;;;9.50;;
44026;SDS011;29696;55.698;37.460;2022-10-22T04:01:35;17.23;;;11.27;;
44026;SDS011;29696;55.698;37.460;2022-10-22T04:04:01;13.73;;;9.40;;
44026;SDS011;29696;55.698;37.460;2022-10-22T04:06:28;15.03;;;9.03;;
44026;SDS011;29696;55.698;37.460;2022-10-22T04:08:54;12.23;;;9.70;;
44026;SDS011;29696;55.698;37.460;2022-10-22T04:11:21;12.07;;;9.33;;
44026;SDS011;29696;55.698;37.460;2022-10-22T04:13:47;14.17;;;9.13;;
44026;SDS011;29696;55.698;37.460;2022-10-22T04:16:14;16.00;;;9.97;;
44026;SDS011;29696;55.698;37.460;2022-10-22T04:18:45;14.43;;;10.57;;
44026;SDS011;29696;55.698;37.460;2022-10-22T04:21:13;14.47;;;9.93;;
44026;SDS011;29696;55.698;37.460;2022-10-22T04:23:48;15.60;;;11.07;;
44026;SDS011;29696;55.698;37.460;2022-10-22T04:26:17;12.97;;;10.43;;
44026;SDS011;29696;55.698;37.460;2022-10-22T04:28:45;10.73;;;9.27;;
44026;SDS011;29696;55.698;37.460;2022-10-22T04:31:13;14.33;;;10.93;;
44026;SDS011;29696;55.698;37.460;2022-10-22T04:33:41;14.10;;;9.60;;
44026;SDS011;29696;55.698;37.460;2022-10-22T04:36:11;15.43;;;10.33;;
44026;SDS011;29696;55.698;37.460;2022-10-22T04:38:40;12.07;;;9.50;;
44026;SDS011;29696;55.698;37.460;2022-10-22T04:41:11;12.77;;;10.43;;
44026;SDS011;29696;55.698;37.460;2022-10-22T04:43:58;11.70;;;9.60;;
44026;SDS011;29696;55.698;37.460;2022-10-22T04:46:25;14.23;;;10.03;;
44026;SDS011;29696;55.698;37.460;2022-10-22T04:48:53;12.80;;;9.93;;
44026;SDS011;29696;55.698;37.460;2022-10-22T04:51:20;13.13;;;10.27;;
44026;SDS011;29696;55.698;37.460;2022-10-22T04:53:48;11.97;;;9.93;;
44026;SDS011;29696;55.698;37.460;2022-10-22T04:56:22;12.07;;;9.17;;
44026;SDS011;29696;55.698;37.460;2022-10-22T04:59:00;15.95;;;10.50;;
44026;SDS011;29696;55.698;37.460;2022-10-22T05:01:32;13.20;;;9.23;;
44026;SDS011;29696;55.698;37.460;2022-10-22T05:04:01;10.23;;;8.57;;
44026;SDS011;29696;55.698;37.460;2022-10-22T05:06:29;13.63;;;8.90;;
44026;SDS011;29696;55.698;37.460;2022-10-22T05:08:58;12.30;;;8.17;;
44026;SDS011;29696;55.698;37.460;2022-10-22T05:11:26;11.97;;;7.90;;
44026;SDS011;29696;55.698;37.460;2022-10-22T05:13:59;10.00;;;8.00;;
44026;SDS011;29696;55.698;37.460;2022-10-22T05:16:27;10.43;;;7.27;;
44026;SDS011;29696;55.698;37.460;2022-10-22T05:18:56;9.80;;;7.37;;
44026;SDS011;29696;55.698;37.460;2022-10-22T05:21:24;12.20;;;6.83;;
44026;SDS011;29696;55.698;37.460;2022-10-22T05:23:52;11.10;;;7.47;;
44026;SDS011;29696;55.698;37.460;2022-10-22T05:26:20;7.23;;;6.43;;
44026;SDS011;29696;55.698;37.460;2022-10-22T05:28:47;12.97;;;8.43;;
44026;SDS011;29696;55.698;37.460;2022-10-22T05:31:14;8.50;;;7.50;;
44026;SDS011;29696;55.698;37.460;2022-10-22T05:33:42;13.40;;;8.40;;
44026;SDS011;29696;55.698;37.460;2022-10-22T05:36:11;9.60;;;7.63;;
44026;SDS011;29696;55.698;37.460;2022-10-22T05:38:40;10.53;;;7.97;;
44026;SDS011;29696;55.698;37.460;2022-10-22T05:41:10;12.53;;;7.83;;
44026;SDS011;29696;55.698;37.460;2022-10-22T05:43:46;34.00;;;7.93;;
44026;SDS011;29696;55.698;37.460;2022-10-22T05:46:37;12.50;;;7.27;;
44026;SDS011;29696;55.698;37.460;2022-10-22T05:49:05;13.23;;;8.10;;
44026;SDS011;29696;55.698;37.460;2022-10-22T05:51:33;13.30;;;8.83;;
44026;SDS011;29696;55.698;37.460;2022-10-22T05:54:02;13.93;;;8.97;;
44026;SDS011;29696;55.698;37.460;2022-10-22T05:56:30;13.23;;;7.37;;
44026;SDS011;29696;55.698;37.460;2022-10-22T05:58:57;11.47;;;8.13;;
44026;SDS011;29696;55.698;37.460;2022-10-22T06:01:27;13.17;;;7.93;;
44026;SDS011;29696;55.698;37.460;2022-10-22T06:03:56;14.77;;;8.97;;
44026;SDS011;29696;55.698;37.460;2022-10-22T06:12:12;12.13;;;9.43;;
44026;SDS011;29696;55.698;37.460;2022-10-22T06:14:38;17.80;;;9.60;;
44026;SDS011;29696;55.698;37.460;2022-10-22T06:17:05;18.13;;;9.70;;
44026;SDS011;29696;55.698;37.460;2022-10-22T06:19:31;9.10;;;7.67;;
44026;SDS011;29696;55.698;37.460;2022-10-22T06:21:57;13.20;;;8.30;;
44026;SDS011;29696;55.698;37.460;2022-10-22T06:24:24;13.53;;;8.97;;
44026;SDS011;29696;55.698;37.460;2022-10-22T06:26:50;14.83;;;9.60;;
44026;SDS011;29696;55.698;37.460;2022-10-22T06:29:17;18.53;;;9.27;;
44026;SDS011;29696;55.698;37.460;2022-10-22T06:31:44;15.57;;;8.67;;
44026;SDS011;29696;55.698;37.460;2022-10-22T06:34:11;15.30;;;9.27;;
44026;SDS011;29696;55.698;37.460;2022-10-22T06:36:38;10.30;;;7.63;;
44026;SDS011;29696;55.698;37.460;2022-10-22T06:39:10;11.30;;;7.70;;
44026;SDS011;29696;55.698;37.460;2022-10-22T06:41:38;13.53;;;7.70;;
44026;SDS011;29696;55.698;37.460;2022-10-22T06:44:05;12.00;;;5.70;;
44026;SDS011;29696;55.698;37.460;2022-10-22T06:46:31;10.30;;;6.40;;
44026;SDS011;29696;55.698;37.460;2022-10-22T06:48:59;12.47;;;6.53;;
44026;SDS011;29696;55.698;37.460;2022-10-22T06:51:27;9.93;;;5.50;;
44026;SDS011;29696;55.698;37.460;2022-10-22T06:53:54;9.23;;;6.03;;
44026;SDS011;29696;55.698;37.460;2022-10-22T06:56:23;8.50;;;5.00;;
44026;SDS011;29696;55.698;37.460;2022-10-22T06:58:53;6.60;;;5.37;;
44026;SDS011;29696;55.698;37.460;2022-10-22T07:01:22;5.37;;;3.70;;
44026;SDS011;29696;55.698;37.460;2022-10-22T07:03:53;5.90;;;4.33;;
44026;SDS011;29696;55.698;37.460;2022-10-22T07:06:20;5.50;;;4.30;;
44026;SDS011;29696;55.698;37.460;2022-10-22T07:08:47;6.77;;;4.47;;
44026;SDS011;29696;55.698;37.460;2022-10-22T07:11:15;7.17;;;4.50;;
44026;SDS011;29696;55.698;37.460;2022-10-22T07:13:45;5.53;;;4.63;;
44026;SDS011;29696;55.698;37.460;2022-10-22T07:16:12;14.43;;;5.93;;
44026;SDS011;29696;55.698;37.460;2022-10-22T07:18:39;7.93;;;5.70;;
44026;SDS011;29696;55.698;37.460;2022-10-22T07:21:07;7.50;;;5.90;;
44026;SDS011;29696;55.698;37.460;2022-10-22T07:23:35;8.40;;;6.27;;
44026;SDS011;29696;55.698;37.460;2022-10-22T07:26:02;10.70;;;5.27;;
44026;SDS011;29696;55.698;37.460;2022-10-22T07:28:29;7.17;;;5.70;;
44026;SDS011;29696;55.698;37.460;2022-10-22T07:30:57;7.40;;;6.23;;
44026;SDS011;29696;55.698;37.460;2022-10-22T07:33:23;10.07;;;5.93;;
44026;SDS011;29696;55.698;37.460;2022-10-22T07:35:50;7.13;;;5.77;;
44026;SDS011;29696;55.698;37.460;2022-10-22T07:38:16;9.63;;;6.10;;
44026;SDS011;29696;55.698;37.460;2022-10-22T07:40:42;8.30;;;4.60;;
44026;SDS011;29696;55.698;37.460;2022-10-22T07:43:09;8.80;;;5.13;;
44026;SDS011;29696;55.698;37.460;2022-10-22T07:45:35;6.67;;;5.07;;
44026;SDS011;29696;55.698;37.460;2022-10-22T07:48:01;6.50;;;4.33;;
44026;SDS011;29696;55.698;37.460;2022-10-22T07:50:28;8.87;;;6.17;;
44026;SDS011;29696;55.698;37.460;2022-10-22T07:52:54;6.63;;;5.53;;
44026;SDS011;29696;55.698;37.460;2022-10-22T07:55:20;7.03;;;5.03;;
44026;SDS011;29696;55.698;37.460;2022-10-22T07:57:46;10.73;;;6.60;;
44026;SDS011;29696;55.698;37.460;2022-10-22T08:00:13;9.60;;;8.00;;
44026;SDS011;29696;55.698;37.460;2022-10-22T08:02:39;16.30;;;7.53;;
44026;SDS011;29696;55.698;37.460;2022-10-22T08:05:06;7.90;;;6.07;;
44026;SDS011;29696;55.698;37.460;2022-10-22T08:07:32;18.23;;;6.00;;
44026;SDS011;29696;55.698;37.460;2022-10-22T08:09:59;6.90;;;5.50;;
44026;SDS011;29696;55.698;37.460;2022-10-22T08:12:25;7.47;;;5.33;;
44026;SDS011;29696;55.698;37.460;2022-10-22T08:14:51;7.43;;;4.37;;
44026;SDS011;29696;55.698;37.460;2022-10-22T08:17:17;5.23;;;4.73;;
44026;SDS011;29696;55.698;37.460;2022-10-22T08:19:44;6.97;;;5.20;;
44026;SDS011;29696;55.698;37.460;2022-10-22T08:22:10;8.27;;;4.53;;
44026;SDS011;29696;55.698;37.460;2022-10-22T08:24:36;5.50;;;4.80;;
44026;SDS011;29696;55.698;37.460;2022-10-22T08:27:03;5.53;;;4.07;;
44026;SDS011;29696;55.698;37.460;2022-10-22T08:29:29;11.57;;;5.27;;
44026;SDS011;29696;55.698;37.460;2022-10-22T08:31:55;6.77;;;4.27;;
44026;SDS011;29696;55.698;37.460;2022-10-22T08:34:21;7.50;;;3.97;;
44026;SDS011;29696;55.698;37.460;2022-10-22T08:36:48;5.30;;;3.37;;
44026;SDS011;29696;55.698;37.460;2022-10-22T08:39:14;5.80;;;3.90;;
44026;SDS011;29696;55.698;37.460;2022-10-22T08:41:44;4.23;;;3.40;;
44026;SDS011;29696;55.698;37.460;2022-10-22T08:50:45;5.40;;;3.43;;
44026;SDS011;29696;55.698;37.460;2022-10-22T08:53:17;5.73;;;3.53;;
44026;SDS011;29696;55.698;37.460;2022-10-22T08:55:47;5.53;;;3.60;;
44026;SDS011;29696;55.698;37.460;2022-10-22T09:07:07;8.70;;;4.83;;
44026;SDS011;29696;55.698;37.460;2022-10-22T09:09:37;6.17;;;5.00;;
44026;SDS011;29696;55.698;37.460;2022-10-22T09:12:09;7.07;;;5.30;;
44026;SDS011;29696;55.698;37.460;2022-10-22T09:14:40;8.67;;;5.67;;
44026;SDS011;29696;55.698;37.460;2022-10-22T09:20:14;6.17;;;5.53;;
44026;SDS011;29696;55.698;37.460;2022-10-22T09:22:54;7.70;;;4.80;;
44026;SDS011;29696;55.698;37.460;2022-10-22T09:25:37;6.30;;;4.90;;
44026;SDS011;29696;55.698;37.460;2022-10-22T09:28:04;10.30;;;5.10;;
44026;SDS011;29696;55.698;37.460;2022-10-22T09:30:33;8.37;;;4.60;;
44026;SDS011;29696;55.698;37.460;2022-10-22T09:33:05;4.60;;;3.90;;
44026;SDS011;29696;55.698;37.460;2022-10-22T09:35:56;6.70;;;4.33;;
44026;SDS011;29696;55.698;37.460;2022-10-22T09:38:30;8.20;;;5.93;;
44026;SDS011;29696;55.698;37.460;2022-10-22T09:40:59;14.77;;;5.97;;
44026;SDS011;29696;55.698;37.460;2022-10-22T09:43:28;14.37;;;8.80;;
44026;SDS011;29696;55.698;37.460;2022-10-22T09:45:55;13.43;;;7.80;;
44026;SDS011;29696;55.698;37.460;2022-10-22T09:48:31;5.63;;;4.80;;
44026;SDS011;29696;55.698;37.460;2022-10-22T09:57:20;13.70;;;4.10;;
44026;SDS011;29696;55.698;37.460;2022-10-22T09:59:48;4.30;;;3.60;;
44026;SDS011;29696;55.698;37.460;2022-10-22T10:02:27;7.10;;;4.20;;
44026;SDS011;29696;55.698;37.460;2022-10-22T10:04:55;7.00;;;3.97;;
44026;SDS011;29696;55.698;37.460;2022-10-22T10:07:24;6.43;;;4.13;;
44026;SDS011;29696;55.698;37.460;2022-10-22T10:09:52;8.40;;;5.53;;
44026;SDS011;29696;55.698;37.460;2022-10-22T10:12:25;11.00;;;5.30;;
44026;SDS011;29696;55.698;37.460;2022-10-22T10:31:25;11.83;;;8.37;;
44026;SDS011;29696;55.698;37.460;2022-10-22T10:34:47;14.13;;;7.53;;
44026;SDS011;29696;55.698;37.460;2022-10-22T10:37:45;8.60;;;6.53;;
44026;SDS011;29696;55.698;37.460;2022-10-22T10:40:33;10.13;;;5.10;;
44026;SDS011;29696;55.698;37.460;2022-10-22T10:43:29;8.07;;;5.10;;
44026;SDS011;29696;55.698;37.460;2022-10-22T10:49:13;8.17;;;4.33;;
44026;SDS011;29696;55.698;37.460;2022-10-22T11:00:54;8.20;;;3.77;;
44026;SDS011;29696;55.698;37.460;2022-10-22T11:03:45;5.97;;;3.90;;
44026;SDS011;29696;55.698;37.460;2022-10-22T11:06:30;5.97;;;4.43;;
44026;SDS011;29696;55.698;37.460;2022-10-22T11:09:34;5.93;;;4.30;;
44026;SDS011;29696;55.698;37.460;2022-10-22T11:11:58;6.50;;;5.23;;
44026;SDS011;29696;55.698;37.460;2022-10-22T11:14:54;5.83;;;4.00;;
44026;SDS011;29696;55.698;37.460;2022-10-22T11:17:39;4.70;;;4.03;;
44026;SDS011;29696;55.698;37.460;2022-10-22T11:30:14;7.63;;;4.67;;
44026;SDS011;29696;55.698;37.460;2022-10-22T11:32:48;6.37;;;4.03;;
44026;SDS011;29696;55.698;37.460;2022-10-22T11:35:22;8.73;;;4.30;;
44026;SDS011;29696;55.698;37.460;2022-10-22T11:37:51;8.50;;;4.50;;
44026;SDS011;29696;55.698;37.460;2022-10-22T11:43:28;9.53;;;4.40;;
44026;SDS011;29696;55.698;37.460;2022-10-22T11:46:00;6.97;;;4.03;;
44026;SDS011;29696;55.698;37.460;2022-10-22T11:52:53;5.33;;;4.33;;
44026;SDS011;29696;55.698;37.460;2022-10-22T11:55:26;7.23;;;3.87;;
44026;SDS011;29696;55.698;37.460;2022-10-22T12:04:20;12.00;;;4.70;;
44026;SDS011;29696;55.698;37.460;2022-10-22T12:06:52;6.43;;;3.87;;
44026;SDS011;29696;55.698;37.460;2022-10-22T12:09:27;6.70;;;3.77;;
44026;SDS011;29696;55.698;37.460;2022-10-22T12:12:03;6.13;;;3.87;;
44026;SDS011;29696;55.698;37.460;2022-10-22T12:14:58;7.33;;;3.30;;
44026;SDS011;29696;55.698;37.460;2022-10-22T12:17:24;6.37;;;4.33;;
44026;SDS011;29696;55.698;37.460;2022-10-22T12:20:00;6.00;;;3.57;;
44026;SDS011;29696;55.698;37.460;2022-10-22T12:22:33;7.10;;;4.07;;
44026;SDS011;29696;55.698;37.460;2022-10-22T12:25:05;5.00;;;3.07;;
44026;SDS011;29696;55.698;37.460;2022-10-22T12:27:40;4.07;;;2.67;;
44026;SDS011;29696;55.698;37.460;2022-10-22T12:30:20;7.60;;;3.37;;
44026;SDS011;29696;55.698;37.460;2022-10-22T12:32:52;5.30;;;4.20;;
44026;SDS011;29696;55.698;37.460;2022-10-22T12:35:22;5.03;;;3.97;;
44026;SDS011;29696;55.698;37.460;2022-10-22T12:37:51;10.40;;;5.53;;
44026;SDS011;29696;55.698;37.460;2022-10-22T12:43:10;5.97;;;4.30;;
44026;SDS011;29696;55.698;37.460;2022-10-22T12:45:41;6.47;;;3.83;;
44026;SDS011;29696;55.698;37.460;2022-10-22T12:48:13;4.07;;;3.50;;
44026;SDS011;29696;55.698;37.460;2022-10-22T12:50:56;2.13;;;1.97;;
44026;SDS011;29696;55.698;37.460;2022-10-22T12:56:33;2.73;;;1.83;;
44026;SDS011;29696;55.698;37.460;2022-10-22T12:59:14;5.17;;;2.47;;
44026;SDS011;29696;55.698;37.460;2022-10-22T13:01:47;5.10;;;2.97;;
44026;SDS011;29696;55.698;37.460;2022-10-22T13:04:18;4.47;;;2.23;;
44026;SDS011;29696;55.698;37.460;2022-10-22T13:07:02;6.00;;;3.07;;
44026;SDS011;29696;55.698;37.460;2022-10-22T13:09:58;2.33;;;2.07;;
44026;SDS011;29696;55.698;37.460;2022-10-22T13:12:33;7.33;;;2.30;;
44026;SDS011;29696;55.698;37.460;2022-10-22T13:18:19;5.60;;;3.77;;
44026;SDS011;29696;55.698;37.460;2022-10-22T13:20:54;7.53;;;3.07;;
44026;SDS011;29696;55.698;37.460;2022-10-22T13:23:31;12.17;;;6.27;;
44026;SDS011;29696;55.698;37.460;2022-10-22T13:29:07;13.00;;;5.77;;
44026;SDS011;29696;55.698;37.460;2022-10-22T13:31:36;12.82;;;6.20;;
44026;SDS011;29696;55.698;37.460;2022-10-22T13:34:13;7.73;;;4.13;;
44026;SDS011;29696;55.698;37.460;2022-10-22T13:36:43;8.33;;;5.10;;
44026;SDS011;29696;55.698;37.460;2022-10-22T13:39:19;10.73;;;5.27;;
44026;SDS011;29696;55.698;37.460;2022-10-22T13:41:49;11.80;;;6.97;;
44026;SDS011;29696;55.698;37.460;2022-10-22T13:44:17;12.93;;;6.90;;
44026;SDS011;29696;55.698;37.460;2022-10-22T13:46:45;13.00;;;7.70;;
44026;SDS011;29696;55.698;37.460;2022-10-22T13:49:14;11.83;;;6.10;;
44026;SDS011;29696;55.698;37.460;2022-10-22T13:51:42;11.40;;;6.77;;
44026;SDS011;29696;55.698;37.460;2022-10-22T13:54:12;16.20;;;6.43;;
44026;SDS011;29696;55.698;37.460;2022-10-22T13:56:41;12.03;;;5.43;;
44026;SDS011;29696;55.698;37.460;2022-10-22T13:59:08;14.60;;;7.90;;
44026;SDS011;29696;55.698;37.460;2022-10-22T14:01:35;13.23;;;5.37;;
44026;SDS011;29696;55.698;37.460;2022-10-22T14:04:02;13.57;;;5.63;;
44026;SDS011;29696;55.698;37.460;2022-10-22T14:06:30;15.03;;;7.43;;
44026;SDS011;29696;55.698;37.460;2022-10-22T14:08:59;13.70;;;8.03;;
44026;SDS011;29696;55.698;37.460;2022-10-22T14:11:28;12.67;;;7.80;;
44026;SDS011;29696;55.698;37.460;2022-10-22T14:13:57;9.90;;;5.50;;
44026;SDS011;29696;55.698;37.460;2022-10-22T14:16:25;16.17;;;7.37;;
44026;SDS011;29696;55.698;37.460;2022-10-22T14:18:53;9.80;;;6.97;;
44026;SDS011;29696;55.698;37.460;2022-10-22T14:21:20;8.90;;;5.30;;
44026;SDS011;29696;55.698;37.460;2022-10-22T14:23:46;13.67;;;7.57;;
44026;SDS011;29696;55.698;37.460;2022-10-22T14:26:23;11.43;;;5.87;;
44026;SDS011;29696;55.698;37.460;2022-10-22T14:28:56;18.17;;;7.67;;
44026;SDS011;29696;55.698;37.460;2022-10-22T14:31:22;9.57;;;6.40;;
44026;SDS011;29696;55.698;37.460;2022-10-22T14:33:48;11.50;;;6.97;;
44026;SDS011;29696;55.698;37.460;2022-10-22T14:36:16;11.93;;;6.50;;
44026;SDS011;29696;55.698;37.460;2022-10-22T14:38:43;10.83;;;7.17;;
44026;SDS011;29696;55.698;37.460;2022-10-22T14:44:02;15.27;;;8.17;;
44026;SDS011;29696;55.698;37.460;2022-10-22T14:46:28;11.57;;;7.87;;
44026;SDS011;29696;55.698;37.460;2022-10-22T14:48:54;17.60;;;7.70;;
44026;SDS011;29696;55.698;37.460;2022-10-22T14:51:21;14.00;;;6.10;;
44026;SDS011;29696;55.698;37.460;2022-10-22T14:53:48;19.57;;;7.57;;
44026;SDS011;29696;55.698;37.460;2022-10-22T14:56:15;9.10;;;6.93;;
44026;SDS011;29696;55.698;37.460;2022-10-22T14:58:43;14.57;;;6.63;;
44026;SDS011;29696;55.698;37.460;2022-10-22T15:01:10;21.37;;;8.57;;
44026;SDS011;29696;55.698;37.460;2022-10-22T15:03:36;14.10;;;8.17;;
44026;SDS011;29696;55.698;37.460;2022-10-22T15:06:03;18.30;;;7.73;;
44026;SDS011;29696;55.698;37.460;2022-10-22T15:08:29;14.30;;;6.47;;
44026;SDS011;29696;55.698;37.460;2022-10-22T15:13:48;10.47;;;6.57;;
44026;SDS011;29696;55.698;37.460;2022-10-22T15:16:15;17.63;;;8.90;;
44026;SDS011;29696;55.698;37.460;2022-10-22T15:18:41;12.37;;;6.37;;
44026;SDS011;29696;55.698;37.460;2022-10-22T15:21:12;12.43;;;6.40;;
44026;SDS011;29696;55.698;37.460;2022-10-22T15:23:40;11.70;;;6.90;;
44026;SDS011;29696;55.698;37.460;2022-10-22T15:26:07;9.90;;;6.20;;
44026;SDS011;29696;55.698;37.460;2022-10-22T15:28:34;8.23;;;7.13;;
44026;SDS011;29696;55.698;37.460;2022-10-22T15:31:02;12.23;;;7.07;;
44026;SDS011;29696;55.698;37.460;2022-10-22T15:33:28;16.37;;;8.40;;
44026;SDS011;29696;55.698;37.460;2022-10-22T15:35:55;12.83;;;6.47;;
44026;SDS011;29696;55.698;37.460;2022-10-22T15:38:28;16.40;;;7.60;;
44026;SDS011;29696;55.698;37.460;2022-10-22T15:41:01;11.97;;;6.97;;
44026;SDS011;29696;55.698;37.460;2022-10-22T15:43:29;7.95;;;6.53;;
44026;SDS011;29696;55.698;37.460;2022-10-22T15:46:07;10.37;;;6.13;;
44026;SDS011;29696;55.698;37.460;2022-10-22T15:48:39;11.63;;;7.27;;
44026;SDS011;29696;55.698;37.460;2022-10-22T15:51:10;14.67;;;7.60;;
44026;SDS011;29696;55.698;37.460;2022-10-22T15:53:40;12.23;;;6.33;;
44026;SDS011;29696;55.698;37.460;2022-10-22T15:56:07;13.67;;;6.43;;
44026;SDS011;29696;55.698;37.460;2022-10-22T15:58:34;12.17;;;6.27;;
44026;SDS011;29696;55.698;37.460;2022-10-22T16:01:07;12.80;;;8.33;;
44026;SDS011;29696;55.698;37.460;2022-10-22T16:03:35;11.00;;;6.53;;
44026;SDS011;29696;55.698;37.460;2022-10-22T16:06:02;14.07;;;6.60;;
44026;SDS011;29696;55.698;37.460;2022-10-22T16:08:29;14.67;;;7.13;;
44026;SDS011;29696;55.698;37.460;2022-10-22T16:10:55;12.53;;;6.80;;
44026;SDS011;29696;55.698;37.460;2022-10-22T16:13:21;8.80;;;6.97;;
44026;SDS011;29696;55.698;37.460;2022-10-22T16:15:50;9.67;;;6.63;;
44026;SDS011;29696;55.698;37.460;2022-10-22T16:18:17;15.13;;;8.67;;
44026;SDS011;29696;55.698;37.460;2022-10-22T16:20:46;10.10;;;6.70;;
44026;SDS011;29696;55.698;37.460;2022-10-22T16:23:12;8.90;;;7.30;;
44026;SDS011;29696;55.698;37.460;2022-10-22T16:25:40;9.40;;;6.33;;
44026;SDS011;29696;55.698;37.460;2022-10-22T16:28:07;11.07;;;6.53;;
44026;SDS011;29696;55.698;37.460;2022-10-22T16:30:36;8.40;;;6.33;;
44026;SDS011;29696;55.698;37.460;2022-10-22T16:33:03;9.73;;;6.73;;
44026;SDS011;29696;55.698;37.460;2022-10-22T16:35:56;12.33;;;6.80;;
44026;SDS011;29696;55.698;37.460;2022-10-22T16:38:22;8.43;;;6.07;;
44026;SDS011;29696;55.698;37.460;2022-10-22T16:40:48;11.47;;;6.80;;
44026;SDS011;29696;55.698;37.460;2022-10-22T16:43:15;13.17;;;6.50;;
44026;SDS011;29696;55.698;37.460;2022-10-22T16:45:50;9.77;;;7.17;;
44026;SDS011;29696;55.698;37.460;2022-10-22T16:48:17;18.97;;;8.33;;
44026;SDS011;29696;55.698;37.460;2022-10-22T16:51:11;12.63;;;7.57;;
44026;SDS011;29696;55.698;37.460;2022-10-22T16:53:39;12.57;;;6.90;;
44026;SDS011;29696;55.698;37.460;2022-10-22T16:56:10;11.40;;;6.63;;
44026;SDS011;29696;55.698;37.460;2022-10-22T16:58:38;12.37;;;6.93;;
44026;SDS011;29696;55.698;37.460;2022-10-22T17:01:08;10.20;;;7.67;;